WetterOnline ( http://www.wetteronline.de )

Wetter aktuell Feldberger Seenlandschaft

Aktuelles Wetter: Feldberg (115m)

6-stündlich | Neueste Meldungen
Ortszeit Temperatur Wetter
Mi, 20.06. 2:00 13.7° C fast wolkenlos
Di, 19.06. 20:00 21.4° C leicht bewölkt
Di, 19.06. 14:00 21.8° C wolkig
Di, 19.06. 8:00 16.9° C wolkig
Di, 19.06. 2:00 17.5° C bedeckt
Mo, 18.06. 20:00 21.1° C bewölkt
Mo, 18.06. 14:00 22.1° C wolkig
Mo, 18.06. 8:00 16.5° C bewölkt
Ortszeit Temperatur Wetter
Mi, 20.06. 5:00 10.6° C fast wolkenlos
Mi, 20.06. 4:50 10.6° C fast wolkenlos
Mi, 20.06. 4:40 10.5° C fast wolkenlos
Mi, 20.06. 4:30 10.6° C fast wolkenlos
Mi, 20.06. 4:20 10.6° C fast wolkenlos
Mi, 20.06. 4:10 10.7° C fast wolkenlos
Mi, 20.06. 4:00 12.0° C wolkenlos
Mi, 20.06. 3:30 12.4° C wolkenlos
Mi, 20.06. 3:00 13.9° C wolkenlos
Mi, 20.06. 2:30 13.9° C fast wolkenlos
Mi, 20.06. 2:00 13.7° C fast wolkenlos
Ortszeit Relative Feuchte Sichtweite
Mi, 20.06. 2:00 79% 50 km
Di, 19.06. 20:00 58% 50 km
Di, 19.06. 14:00 58% -
Di, 19.06. 8:00 73% 23 km
Di, 19.06. 2:00 74% 25 km
Mo, 18.06. 20:00 54% 30 km
Mo, 18.06. 14:00 44% 23 km
Mo, 18.06. 8:00 70% 24 km
Ortszeit Relative Feuchte Sichtweite
Mi, 20.06. 5:00 88% 35 km
Mi, 20.06. 4:50 88% -
Mi, 20.06. 4:40 89% -
Mi, 20.06. 4:30 87% 35 km
Mi, 20.06. 4:20 87% -
Mi, 20.06. 4:10 87% -
Mi, 20.06. 4:00 80% 50 km
Mi, 20.06. 3:30 81% 50 km
Mi, 20.06. 3:00 75% 50 km
Mi, 20.06. 2:30 77% 55 km
Mi, 20.06. 2:00 79% 50 km
Ortszeit Niederschlagsmenge Niederschlagsart
Mi, 20.06. 2:00 0.0 l/m2 in 6 Std. -
Di, 19.06. 20:00 0.1 l/m2 in 12 Std. -
Di, 19.06. 14:00 0.0 l/m2 in 6 Std. -
Di, 19.06. 8:00 0.0 l/m2 in 12 Std. -
Di, 19.06. 2:00 0.0 l/m2 in 6 Std. -
Mo, 18.06. 20:00 0.1 l/m2 in 12 Std. -
Mo, 18.06. 14:00 0.1 l/m2 in 6 Std. Sprühregen
Mo, 18.06. 8:00 0.0 l/m2 in 12 Std. -
Ortszeit Niederschlagsmenge Niederschlagsart
Mi, 20.06. 5:00 0.0 l/m2 in 1 Std. -
Mi, 20.06. 4:50 keine Meldung -
Mi, 20.06. 4:40 keine Meldung -
Mi, 20.06. 4:30 0.0 l/m2 in 1 Std. -
Mi, 20.06. 4:20 keine Meldung -
Mi, 20.06. 4:10 keine Meldung -
Mi, 20.06. 4:00 0.0 l/m2 in 1 Std. -
Mi, 20.06. 3:30 0.0 l/m2 in 1 Std. -
Mi, 20.06. 3:00 0.0 l/m2 in 1 Std. -
Mi, 20.06. 2:30 0.0 l/m2 in 1 Std. -
Mi, 20.06. 2:00 0.0 l/m2 in 1 Std. -
Ortszeit Stärke Spitze Richtung
km/h Bft. km/h Grad Sektor
Mi, 20.06. 2:00 11 2 32 270° W
Di, 19.06. 20:00 18 3 40 270° W
Di, 19.06. 14:00 20 4 39 250° W
Di, 19.06. 8:00 18 3 32 270° W
Di, 19.06. 2:00 11 2 29 230° SW
Mo, 18.06. 20:00 14 3 36 250° W
Mo, 18.06. 14:00 14 3 36 230° SW
Mo, 18.06. 8:00 6 1 9 240° SW
Ortszeit Stärke Spitze Richtung
km/h Bft. km/h Grad Sektor
Mi, 20.06. 5:00 9 2 11 250° W
Mi, 20.06. 4:50 9 2 - 250° W
Mi, 20.06. 4:40 7 2 - 250° W
Mi, 20.06. 4:30 7 2 11 260° W
Mi, 20.06. 4:20 7 2 - 260° W
Mi, 20.06. 4:10 7 2 - 260° W
Mi, 20.06. 4:00 9 2 11 270° W
Mi, 20.06. 3:30 7 2 11 290° W
Mi, 20.06. 3:00 9 2 17 290° W
Mi, 20.06. 2:30 7 2 14 290° W
Mi, 20.06. 2:00 11 2 14 270° W
Ortszeit Untergrenze Bedeckung Gattung
total tief tief mittel hoch
Mi, 20.06. 2:00 8400 m 2/8 0/8 - - -
Di, 19.06. 20:00 1800 m 3/8 1/8 - - -
Di, 19.06. 14:00 1110 m 6/8 6/8 - - -
Di, 19.06. 8:00 630 m 5/8 4/8 - - -
Di, 19.06. 2:00 1800 m 8/8 8/8 - - -
Mo, 18.06. 20:00 1470 m 7/8 7/8 - - -
Mo, 18.06. 14:00 1380 m 5/8 5/8 - - -
Mo, 18.06. 8:00 1320 m 7/8 7/8 - - -
Ortszeit Bedeckungsgrad in Achtel und Wolkenuntergrenze
Mi, 20.06. 5:00 2(8700m)
Mi, 20.06. 4:50 2(8700m)
Mi, 20.06. 4:40 1(8400m)
Mi, 20.06. 4:30 1(8400m)
Mi, 20.06. 4:20 1(8400m)
Mi, 20.06. 4:10 2(8400m)
Mi, 20.06. 4:00 1(8400m)
Mi, 20.06. 3:30 keine Wolken
Mi, 20.06. 3:00 keine Wolken
Mi, 20.06. 2:30 1(8400m)
Mi, 20.06. 2:00 2(8400m)
Ortszeit Luftdruck NN (hPa) Tendenz (hPa in 3 Std.)
Mi, 20.06. 2:00 1023 + 0,7
Di, 19.06. 20:00 1021 - 0,1
Di, 19.06. 14:00 1020 + 0,4
Di, 19.06. 8:00 1019 + 1,0
Di, 19.06. 2:00 1018 - 0,5
Mo, 18.06. 20:00 1018 - 0,8
Mo, 18.06. 14:00 1019 + 0,1
Mo, 18.06. 8:00 1019 + 0,6
Ortszeit Luftdruck NN (hPa) Tendenz (hPa in 3 Std.)
Mi, 20.06. 5:00 1023 - 0,1
Mi, 20.06. 4:50 1023 keine Meldung
Mi, 20.06. 4:40 1023 keine Meldung
Mi, 20.06. 4:30 1023 - 0,2
Mi, 20.06. 4:20 1023 keine Meldung
Mi, 20.06. 4:10 1023 keine Meldung
Mi, 20.06. 4:00 1023 - 0,1
Mi, 20.06. 3:30 1023 0,0
Mi, 20.06. 3:00 1023 + 0,1
Mi, 20.06. 2:30 1023 + 0,5
Mi, 20.06. 2:00 1023 + 0,7
Ortszeit Schneehöhe (cm)
Mi, 20.06. 2:00 -
Di, 19.06. 20:00 -
Di, 19.06. 14:00 -
Di, 19.06. 8:00 -
Di, 19.06. 2:00 -
Mo, 18.06. 20:00 -
Mo, 18.06. 14:00 -
Mo, 18.06. 8:00 -
Ortszeit Schneehöhe (cm)
Mi, 20.06. 5:00 -
Mi, 20.06. 4:50 -
Mi, 20.06. 4:40 -
Mi, 20.06. 4:30 -
Mi, 20.06. 4:20 -
Mi, 20.06. 4:10 -
Mi, 20.06. 4:00 -
Mi, 20.06. 3:30 -
Mi, 20.06. 3:00 -
Mi, 20.06. 2:30 -
Mi, 20.06. 2:00 -
Link zu dieser Seite / Seite empfehlen

Das Wetter in ...